Antioch, Tennessee
Current Conditions -  °F | °C
As of 7:53 AM on Monday 26 Jan 2015 (Local Time) from KBNA Reporting Station
Overcast Overcast  
Wind Chill: 25°   Ceiling: 1400
Heat Index: 33°   Visibility: 10mi
Dew Point: 28°   Wind: 9mph
Humidity: 82%   Direction: 320°NW
Pressure: 29.98"   Gusts: NA
Location:  36.06°N, 86.67°W
Report Text: KBNA 261353Z 32008KT 10SM OVC014 01/M02 A2998 RMK AO2 SLP153 T00061022 $
Loading
Personal Weather Stations






























Interactive Weather Map New forecast layout! Learn more

10-Day Weather Forecast

Advertisements
Track Severe Weather on mobile